Terminal Aerodrome Forecast
Issued by NWS

Home | Current Version | Previous Version | Text Only | Print | Product List | Glossary On
Versions: 1 2 3 4 5 6 7 8 9 10 11 12 13 14 15 16 17 18
000
FTUS45 KBOI 090055 AAA
TAFJER
TAF AMD
KJER 090055Z 0901/0924 05018KT 1SM -SN OVC015
     FM090500 04013KT P6SM VCSH OVC020
     FM090800 06006KT P6SM SCT025 OVC050
     FM091500 07007KT 4SM -SHRA OVC025=

USA.gov is the U.S. government's official web portal to all federal, state and local government web resources and services.